Strona główna
METAR-TAF:

METAR-TAF

Lotnisko :

Sherbrooke, Quebec, Kanada

Szerokość geograficzna: 45-24N, Długość geograficzna: 071-53W, wysokość: 170 m

Aktualna obserwacja pogody

Raport powstał 21 minut temu, godzina 03:00 UTC
Wiatr 8 kt od północny wschód
Temperatura 5°C
Wilgotność 70%
Ciśnienie 1016 hPa
Widzialność: 14.5 km
Mało chmury na wysokości 7500 ft

METAR: CYSC 040300Z AUTO 05008KT 9SM FEW075 05/M00 A3001 RMK SLP173

czas: 23:21 (03:21 UTC)

Prognoza

Raport powstał 3 godziny i 36 minut temu, godzina 23:45 UTC
Prognoza ważna od 04 godzina 00 UTC do 04 godzina 03 UTC
Wiatr 8 kt od północny wschód w porywach dochodzący do 18 kt
Widzialność: 10 km
Przerywane chmury na wysokości 5000 ft
Przejściowo
od 04 godzina 00 UTC do 04 godzina 03 UTC
Przerywane chmury na wysokości 2000 ft

TAF: CYSC 032345Z 0400/0403 05008G18KT P6SM BKN050 TEMPO 0400/0403 BKN020 RMK FCST BASED ON AUTO OBS. NXT FCST WILL BE ISSUED AT 041045Z

Obserwacja i prognoza pogody dla ponad 4000 lotnisk (raport METAR i TAF).

Dostępne stacje oznaczono żółtymi i czerwonymi punktami na mapie.

Najedź kursorem aby zobaczyć nazwę stacji.

Kliknij aby zobaczyć obserwacje i prognozy pogody.

Aby zmienić mapę: kliknij na zielony przycisk z czarnym krzyżykiem, aby powiększyć; na zielony przycisk z myślnikiem, aby pomniejszyć; na zielone strzałki, aby przejść do map sąsiednich.


METAR-TAF: